Temp: 17.2°C   Baro: 1010.2mb
  Wind: 6.0mph   Dir: WNW (285°)
  Rain: 0.8mm (0.0mm/hr)
  Solar: 160W/m2  Hum: 92%
 
Bath Spa Weather Station Historical Data
Daily Summary for November 17, 2019 Units:  Metric    English   Both
Daily Weekly Monthly Yearly Custom
  High: Low: Average:
Temperature: 8.5 °C 2.5 °C 5.9 °C
Dew Point: 6.9 °C 1.5 °C 4.6 °C
Humidity: 94% 88% 92%
Wind Speed: 10km/h 0km/h 1.6km/h
Wind Gust: 25.7km/h - -
Wind- - SE
Pressure: 1015.1 hPa 1008.4 hPa -
Precipitation: 0.76 mm    
Historical Graphs
 
 
Tabular Data for November 17, 2019
Time Temperature Dew Point Pressure Wind Wind Speed Wind Gust Humidity Rainfall Rate (Hourly) solar
00:04 3.3 °C 2.3 °C 1008.7 hPa Calm     93% 0 mm 0 W/m2
00:09 3.2 °C 2.1 °C 1008.7 hPa Calm     92.3% 0 mm 0 W/m2
00:14 3.2 °C 2 °C 1008.7 hPa Calm     92% 0 mm 0 W/m2
00:19 3.2 °C 2 °C 1008.7 hPa Calm     92% 0 mm 0 W/m2
00:24 3.2 °C 1.9 °C 1008.7 hPa Calm     92% 0 mm 0 W/m2
00:29 3.1 °C 1.9 °C 1008.7 hPa Calm     92.7% 0 mm 0 W/m2
00:34 2.9 °C 1.9 °C 1008.7 hPa Calm     93% 0 mm 0 W/m2
00:39 2.8 °C 1.7 °C 1008.7 hPa Calm     92.3% 0 mm 0 W/m2
00:44 2.8 °C 1.6 °C 1008.7 hPa Calm     92% 0 mm 0 W/m2
00:49 2.8 °C 1.6 °C 1008.7 hPa Calm     92% 0 mm 0 W/m2
00:54 2.7 °C 1.6 °C 1008.7 hPa Calm     92.2% 0 mm 0 W/m2
00:59 2.8 °C 1.8 °C 1008.7 hPa Calm     93% 0 mm 0 W/m2
01:04 2.8 °C 1.8 °C 1008.7 hPa Calm     93% 0 mm 0 W/m2
01:09 2.8 °C 1.8 °C 1008.7 hPa Calm     93% 0 mm 0 W/m2
01:14 2.8 °C 1.8 °C 1008.7 hPa Calm     93% 0 mm 0 W/m2
01:19 2.8 °C 1.8 °C 1008.7 hPa Calm     93% 0 mm 0 W/m2
01:24 2.8 °C 1.8 °C 1008.7 hPa Calm     93% 0 mm 0 W/m2
01:29 2.7 °C 1.7 °C 1008.4 hPa Calm     93% 0 mm 0 W/m2
01:34 2.7 °C 1.7 °C 1008.4 hPa Calm     93% 0 mm 0 W/m2
01:39 2.6 °C 1.6 °C 1008.4 hPa Calm     93% 0 mm 0 W/m2
01:44 2.6 °C 1.6 °C 1008.4 hPa Calm     93% 0 mm 0 W/m2
01:49 2.5 °C 1.5 °C 1008.4 hPa Calm     93% 0 mm 0 W/m2
01:54 2.6 °C 1.6 °C 1008.7 hPa Calm     93% 0 mm 0 W/m2
01:59 2.5 °C 1.5 °C 1008.7 hPa Calm   1.6 km/h 93% 0 mm 0 W/m2
02:04 2.6 °C 1.6 °C 1008.7 hPa Calm   1.6 km/h 93% 0 mm 0 W/m2
02:09 2.6 °C 1.6 °C 1008.7 hPa Calm     93% 0 mm 0 W/m2
02:14 2.6 °C 1.6 °C 1008.7 hPa Calm     93% 0 mm 0 W/m2
02:19 2.6 °C 1.6 °C 1008.7 hPa Calm     93% 0 mm 0 W/m2
02:24 2.6 °C 1.6 °C 1008.7 hPa Calm     93% 0 mm 0 W/m2
02:29 2.6 °C 1.6 °C 1008.7 hPa Calm     93% 0 mm 0 W/m2
02:34 2.6 °C 1.6 °C 1008.7 hPa Calm     93% 0 mm 0 W/m2
02:39 2.7 °C 1.7 °C 1008.7 hPa Calm   1.6 km/h 93% 0 mm 0 W/m2
02:44 2.7 °C 1.7 °C 1008.7 hPa Calm     93% 0 mm 0 W/m2
02:49 2.7 °C 1.7 °C 1008.4 hPa Calm     93% 0 mm 0 W/m2
02:54 2.7 °C 1.7 °C 1008.4 hPa Calm     93% 0 mm 0 W/m2
02:59 2.7 °C 1.7 °C 1008.4 hPa Calm     93% 0 mm 0 W/m2
03:04 2.7 °C 1.7 °C 1008.4 hPa Calm     93% 0 mm 0 W/m2
03:09 2.7 °C 1.7 °C 1008.4 hPa Calm     93% 0 mm 0 W/m2
03:14 2.7 °C 1.7 °C 1008.4 hPa Calm     93% 0 mm 0 W/m2
03:19 2.8 °C 1.8 °C 1008.4 hPa Calm     93% 0 mm 0 W/m2
03:24 2.8 °C 1.8 °C 1008.4 hPa Calm     93% 0 mm 0 W/m2
03:29 2.8 °C 1.8 °C 1008.4 hPa Calm     93% 0 mm 0 W/m2
03:34 2.9 °C 1.9 °C 1008.7 hPa Calm     93% 0 mm 0 W/m2
03:39 2.8 °C 1.8 °C 1008.7 hPa Calm     93% 0 mm 0 W/m2
03:44 2.9 °C 1.9 °C 1008.7 hPa Calm     93% 0 mm 0 W/m2
03:49 2.8 °C 1.8 °C 1008.7 hPa Calm     93% 0 mm 0 W/m2
03:54 2.9 °C 1.9 °C 1009 hPa Calm     93% 0 mm 0 W/m2
03:59 2.9 °C 1.9 °C 1009 hPa Calm   1.6 km/h 93% 0 mm 0 W/m2
04:04 2.9 °C 1.9 °C 1009 hPa Calm     93% 0 mm 0 W/m2
04:09 2.8 °C 1.9 °C 1009 hPa Calm   1.6 km/h 93.2% 0 mm 0 W/m2
04:14 2.8 °C 1.8 °C 1009 hPa Calm   1.6 km/h 93% 0 mm 0 W/m2
04:19 2.8 °C 1.8 °C 1009 hPa Calm     93.1% 0 mm 0 W/m2
04:24 2.9 °C 2 °C 1009 hPa Calm     93.8% 0 mm 0 W/m2
04:29 2.9 °C 2 °C 1009 hPa Calm     93.8% 0 mm 0 W/m2
04:34 2.9 °C 2 °C 1009 hPa Calm     93.8% 0 mm 0 W/m2
04:39 3 °C 2.1 °C 1009 hPa Calm     93.6% 0 mm 0 W/m2
04:44 3.1 °C 2.1 °C 1009 hPa Calm     93% 0 mm 0 W/m2
04:49 3.1 °C 2.1 °C 1009 hPa Calm     93% 0 mm 0 W/m2
04:54 3.1 °C 2.1 °C 1009 hPa Calm     93% 0 mm 0 W/m2
04:59 3.1 °C 2.1 °C 1009 hPa Calm     93% 0 mm 0 W/m2
05:04 3.1 °C 2.1 °C 1009 hPa Calm     93.1% 0 mm 0 W/m2
05:09 3.1 °C 2.1 °C 1009 hPa Calm   1.6 km/h 93.1% 0 mm 0 W/m2
05:14 3.1 °C 2.2 °C 1009 hPa NNW 0.2 km/h 3.2 km/h 94% 0 mm 0 W/m2
05:19 3.1 °C 2.2 °C 1009 hPa NNW 0.3 km/h 4.8 km/h 93.8% 0 mm 0 W/m2
05:24 3.1 °C 2.2 °C 1009 hPa Calm   1.6 km/h 93.7% 0 mm 0 W/m2
05:29 3.1 °C 2.2 °C 1009 hPa Calm     93.7% 0 mm 0 W/m2
05:34 3.2 °C 2.2 °C 1009 hPa Calm     93.9% 0 mm 0 W/m2
05:39 3.2 °C 2.2 °C 1009.4 hPa Calm     93.5% 0 mm 0 W/m2
05:44 3.2 °C 2.3 °C 1009.4 hPa Calm     93.7% 0 mm 0 W/m2
05:49 3.2 °C 2.3 °C 1009.4 hPa Calm     94% 0 mm 0 W/m2
05:54 3.2 °C 2.3 °C 1009.4 hPa Calm     94% 0 mm 0 W/m2
05:59 3.2 °C 2.3 °C 1009.4 hPa Calm     94% 0 mm 0 W/m2
06:04 3.3 °C 2.3 °C 1009.4 hPa Calm     94% 0 mm 0 W/m2
06:09 3.3 °C 2.4 °C 1009.4 hPa Calm     94% 0 mm 0 W/m2
06:14 3.3 °C 2.4 °C 1009.7 hPa Calm     94% 0 mm 0 W/m2
06:19 3.3 °C 2.4 °C 1009.7 hPa Calm   1.6 km/h 94% 0 mm 0 W/m2
06:24 3.2 °C 2.3 °C 1009.7 hPa Calm     94% 0 mm 0 W/m2
06:29 3.2 °C 2.3 °C 1009.7 hPa Calm   1.6 km/h 94% 0 mm 0 W/m2
06:34 3.2 °C 2.2 °C 1009.7 hPa Calm     93.3% 0 mm 0 W/m2
06:39 3.1 °C 2.1 °C 1009.7 hPa Calm     93% 0 mm 0 W/m2
06:44 3.1 °C 2.1 °C 1009.7 hPa Calm     93% 0 mm 0 W/m2
06:49 3.1 °C 2.1 °C 1009.7 hPa Calm     93.1% 0 mm 0 W/m2
06:54 3.1 °C 2.1 °C 1009.7 hPa Calm     93% 0 mm 0 W/m2
06:59 3.1 °C 2.1 °C 1009.7 hPa Calm     93% 0 mm 0 W/m2
07:04 3.2 °C 2.2 °C 1010 hPa Calm     93% 0 mm 0 W/m2
07:09 3.2 °C 2.3 °C 1010 hPa Calm   1.6 km/h 94% 0 mm 0 W/m2
07:14 3.3 °C 2.4 °C 1010 hPa Calm   1.6 km/h 94% 0 mm 0 W/m2
07:19 3.3 °C 2.3 °C 1010 hPa Calm     93.6% 0 mm 0 W/m2
07:24 3.3 °C 2.4 °C 1010 hPa Calm     94% 0 mm 0 W/m2
07:29 3.3 °C 2.4 °C 1010 hPa Calm     94% 0 mm 0 W/m2
07:34 3.3 °C 2.4 °C 1010 hPa Calm     94% 0 mm 0 W/m2
07:39 3.4 °C 2.5 °C 1010 hPa Calm     94% 0 mm 5 W/m2
07:44 3.4 °C 2.5 °C 1010 hPa Calm     94% 0 mm 9 W/m2
07:49 3.4 °C 2.5 °C 1010 hPa Calm     94% 0 mm 9 W/m2
07:54 3.4 °C 2.5 °C 1010.4 hPa Calm     94% 0 mm 9 W/m2
07:59 3.4 °C 2.6 °C 1010.4 hPa Calm   1.6 km/h 94% 0 mm 9 W/m2
08:04 3.5 °C 2.6 °C 1010.4 hPa Calm     94% 0.25 mm 9 W/m2
08:09 3.6 °C 2.7 °C 1010.4 hPa Calm     94% 0.25 mm 11 W/m2
08:14 3.6 °C 2.7 °C 1010.4 hPa Calm   1.6 km/h 94% 0.51 mm 14 W/m2
08:19 3.7 °C 2.8 °C 1010.7 hPa Calm   1.6 km/h 94% 0.51 mm 18 W/m2
08:24 3.7 °C 2.8 °C 1010.4 hPa NNW 0.2 km/h 1.6 km/h 94% 0.51 mm 25 W/m2
08:29 3.7 °C 2.8 °C 1010.4 hPa Calm   1.6 km/h 94% 0.51 mm 33 W/m2
08:34 3.8 °C 2.9 °C 1010.4 hPa Calm   1.6 km/h 94% 0.51 mm 40 W/m2
08:39 3.9 °C 3.1 °C 1010.7 hPa NNW 0.6 km/h 3.2 km/h 94% 0.51 mm 53 W/m2
08:44 3.9 °C 3 °C 1010.7 hPa Calm   1.6 km/h 94% 0.51 mm 63 W/m2
08:49 3.9 °C 3.1 °C 1010.7 hPa Calm   1.6 km/h 94% 0.51 mm 60 W/m2
08:54 4.2 °C 3.2 °C 1010.7 hPa Calm   1.6 km/h 94% 0.51 mm 62 W/m2
08:59 4.2 °C 3.3 °C 1010.7 hPa Calm     94% 0.51 mm 72 W/m2
09:04 4.3 °C 3.4 °C 1010.7 hPa Calm     94% 0.51 mm 76 W/m2
09:09 4.4 °C 3.5 °C 1010.7 hPa Calm     94% 0.25 mm 98 W/m2
09:14 4.4 °C 3.6 °C 1010.7 hPa Calm   1.6 km/h 94% 0.25 mm 111 W/m2
09:19 4.7 °C 3.7 °C 1010.7 hPa Calm     94% 0 mm 113 W/m2
09:24 4.8 °C 3.8 °C 1010.7 hPa Calm   1.6 km/h 94% 0 mm 113 W/m2
09:29 4.7 °C 3.8 °C 1011.1 hPa Calm   1.6 km/h 94% 0 mm 109 W/m2
09:34 4.9 °C 4 °C 1011.1 hPa Calm     94% 0 mm 104 W/m2
09:39 4.9 °C 4.1 °C 1011.1 hPa Calm   1.6 km/h 94% 0 mm 95 W/m2
09:44 5.1 °C 4.2 °C 1011.1 hPa NNW 0.2 km/h 3.2 km/h 94% 0 mm 74 W/m2
09:49 5.1 °C 4.2 °C 1011.1 hPa NNW 0.6 km/h 4.8 km/h 94% 0 mm 76 W/m2
09:54 5.1 °C 4.2 °C 1011.1 hPa Calm   1.6 km/h 94% 0 mm 84 W/m2
09:59 5.1 °C 4.2 °C 1011.1 hPa Calm     94% 0 mm 95 W/m2
10:04 5.1 °C 4.2 °C 1011.1 hPa Calm     94% 0 mm 100 W/m2
10:09 5.2 °C 4.3 °C 1011.1 hPa Calm   1.6 km/h 94% 0 mm 105 W/m2
10:14 5.3 °C 4.3 °C 1011.1 hPa Calm   1.6 km/h 93.6% 0 mm 113 W/m2
10:19 5.3 °C 4.3 °C 1011.1 hPa Calm   1.6 km/h 93% 0 mm 116 W/m2
10:24 5.4 °C 4.4 °C 1011.4 hPa Calm   1.6 km/h 93.4% 0 mm 121 W/m2
10:29 5.6 °C 4.7 °C 1011.4 hPa NNW 0.2 km/h 3.2 km/h 93.6% 0 mm 121 W/m2
10:34 5.6 °C 4.6 °C 1011.4 hPa NNW 0.2 km/h 3.2 km/h 93% 0 mm 127 W/m2
10:39 5.6 °C 4.6 °C 1011.4 hPa Calm     93% 0 mm 144 W/m2
10:44 5.7 °C 4.7 °C 1011.4 hPa Calm   1.6 km/h 93% 0 mm 156 W/m2
10:49 5.8 °C 4.8 °C 1011.4 hPa Calm     93% 0 mm 156 W/m2
10:54 5.8 °C 4.8 °C 1011.4 hPa Calm     93% 0 mm 146 W/m2
10:59 6.1 °C 5.1 °C 1011.4 hPa Calm     93% 0 mm 151 W/m2
11:04 6.2 °C 5.2 °C 1011.4 hPa Calm     93% 0 mm 178 W/m2
11:09 6.3 °C 5.3 °C 1011.4 hPa Calm     93% 0 mm 178 W/m2
11:14 6.3 °C 5.3 °C 1011.4 hPa Calm     93% 0 mm 146 W/m2
11:19 6.4 °C 5.4 °C 1011.4 hPa Calm   1.6 km/h 93% 0 mm 142 W/m2
11:24 6.6 °C 5.4 °C 1011.1 hPa NNW 0.6 km/h 3.2 km/h 93% 0 mm 142 W/m2
11:29 6.6 °C 5.5 °C 1011.1 hPa Calm   1.6 km/h 92.8% 0 mm 132 W/m2
11:34 6.7 °C 5.6 °C 1011.4 hPa Calm     93% 0 mm 123 W/m2
11:39 6.9 °C 5.7 °C 1011.1 hPa Calm     92.1% 0 mm 114 W/m2
11:44 7.1 °C 5.8 °C 1011.1 hPa Calm     92% 0 mm 100 W/m2
11:49 7.2 °C 5.9 °C 1011.1 hPa Calm     92% 0 mm 137 W/m2
11:54 7.3 °C 6.1 °C 1011.1 hPa Calm     92% 0 mm 199 W/m2
11:59 7.7 °C 6.4 °C 1011.1 hPa NNW 0.8 km/h 4.8 km/h 92% 0 mm 220 W/m2
12:04 8 °C 6.8 °C 1011.1 hPa NNW 1.1 km/h 6.4 km/h 92% 0 mm 195 W/m2
12:09 8.1 °C 6.9 °C 1011.1 hPa NNW 1.8 km/h 6.4 km/h 91.9% 0 mm 155 W/m2
12:14 8.2 °C 6.7 °C 1011.1 hPa NNW 3.9 km/h 8 km/h 91% 0 mm 234 W/m2
12:19 8.2 °C 6.8 °C 1011.1 hPa NW 4.3 km/h 9.7 km/h 91% 0 mm 243 W/m2
12:24 8.4 °C 6.9 °C 1011.1 hPa NW 2.3 km/h 8 km/h 90.2% 0 mm 243 W/m2
12:29 8.4 °C 6.9 °C 1011.1 hPa NW 1.1 km/h 8 km/h 90% 0 mm 153 W/m2
12:34 8.4 °C 6.8 °C 1011.1 hPa NW 2.6 km/h 8 km/h 89% 0 mm 74 W/m2
12:39 8.4 °C 6.7 °C 1011.1 hPa NW 2.1 km/h 9.7 km/h 89% 0 mm 70 W/m2
12:44 8.3 °C 6.6 °C 1011.1 hPa NW 1.6 km/h 6.4 km/h 89% 0 mm 69 W/m2
12:49 8.3 °C 6.6 °C 1011.4 hPa NW 0.3 km/h 3.2 km/h 89% 0 mm 72 W/m2
12:54 8.3 °C 6.7 °C 1011.4 hPa NW 0.5 km/h 3.2 km/h 89% 0 mm 62 W/m2
12:59 8.3 °C 6.6 °C 1011.4 hPa NW 5.8 km/h 12.9 km/h 88.5% 0 mm 72 W/m2
13:04 8.2 °C 6.3 °C 1011.4 hPa NNW 5.3 km/h 12.9 km/h 88% 0 mm 83 W/m2
13:09 8.2 °C 6.3 °C 1011.4 hPa North 1.4 km/h 8 km/h 88% 0 mm 102 W/m2
13:14 8.3 °C 6.4 °C 1011.4 hPa North 1.4 km/h 8 km/h 88% 0 mm 84 W/m2
13:19 8.3 °C 6.4 °C 1011.4 hPa North 4.8 km/h 9.7 km/h 88% 0 mm 142 W/m2
13:24 8.3 °C 6.4 °C 1011.4 hPa North 1.8 km/h 9.7 km/h 88% 0 mm 142 W/m2
13:29 8.3 °C 6.4 °C 1011.4 hPa North 3.5 km/h 11.3 km/h 88% 0 mm 98 W/m2
13:34 8.3 °C 6.4 °C 1011.4 hPa North 5.3 km/h 12.9 km/h 88% 0 mm 95 W/m2
13:39 8.3 °C 6.3 °C 1011.7 hPa North 3.7 km/h 11.3 km/h 88% 0 mm 90 W/m2
13:44 8.2 °C 6.3 °C 1011.7 hPa North 5.6 km/h 12.9 km/h 88% 0 mm 70 W/m2
13:49 8.1 °C 6.2 °C 1011.7 hPa North 4.3 km/h 12.9 km/h 88% 0 mm 53 W/m2
13:54 8 °C 6.1 °C 1011.7 hPa North 2.1 km/h 6.4 km/h 88% 0 mm 53 W/m2
13:59 8 °C 6.2 °C 1011.7 hPa North 3.2 km/h 8 km/h 88% 0 mm 37 W/m2
14:04 8.1 °C 6.3 °C 1011.7 hPa NNE 3.4 km/h 11.3 km/h 88.5% 0 mm 42 W/m2
14:09 8.1 °C 6.4 °C 1011.7 hPa NNE 1.8 km/h 11.3 km/h 89% 0 mm 51 W/m2
14:14 8.2 °C 6.5 °C 1011.7 hPa NNE 2.9 km/h 11.3 km/h 89% 0 mm 53 W/m2
14:19 8.2 °C 6.5 °C 1011.7 hPa NE 3.9 km/h 11.3 km/h 89% 0 mm 60 W/m2
14:24 8.2 °C 6.6 °C 1011.7 hPa NE 3.4 km/h 8 km/h 89% 0 mm 58 W/m2
14:29 8.2 °C 6.6 °C 1011.7 hPa NE 4.8 km/h 9.7 km/h 89% 0 mm 51 W/m2
14:34 8.3 °C 6.6 °C 1011.7 hPa NE 2.6 km/h 8 km/h 89% 0 mm 49 W/m2
14:39 8.3 °C 6.6 °C 1012.1 hPa NE 1 km/h 8 km/h 89% 0 mm 49 W/m2
14:44 8.3 °C 6.6 °C 1012.1 hPa NE 1.6 km/h 8 km/h 88.9% 0 mm 49 W/m2
14:49 8.4 °C 6.5 °C 1012.1 hPa NE 1.9 km/h 8 km/h 88% 0 mm 46 W/m2
14:54 8.4 °C 6.5 °C 1012.1 hPa NE 1.9 km/h 8 km/h 88% 0 mm 47 W/m2
14:59 8.4 °C 6.5 °C 1012.1 hPa NE 0.2 km/h 3.2 km/h 88% 0 mm 56 W/m2
15:04 8.4 °C 6.5 °C 1012.1 hPa Calm     88% 0 mm 54 W/m2
15:09 8.4 °C 6.5 °C 1012.1 hPa Calm   1.6 km/h 88% 0 mm 51 W/m2
15:14 8.4 °C 6.5 °C 1012.1 hPa NE 1 km/h 3.2 km/h 88% 0 mm 46 W/m2
15:19 8.4 °C 6.6 °C 1012.1 hPa Calm   3.2 km/h 88% 0 mm 35 W/m2
15:24 8.5 °C 6.6 °C 1012.1 hPa NE 0.8 km/h 4.8 km/h 88% 0 mm 25 W/m2
15:29 8.5 °C 6.6 °C 1012.1 hPa NE 0.6 km/h 4.8 km/h 88% 0 mm 19 W/m2
15:34 8.4 °C 6.5 °C 1012.1 hPa NE 0.3 km/h 3.2 km/h 88% 0 mm 21 W/m2
15:39 8.4 °C 6.6 °C 1012.4 hPa NE 0.2 km/h 1.6 km/h 88% 0 mm 21 W/m2
15:44 8.4 °C 6.5 °C 1012.4 hPa NE 0.2 km/h 1.6 km/h 88% 0 mm 19 W/m2
15:49 8.4 °C 6.5 °C 1012.4 hPa Calm   1.6 km/h 88% 0 mm 14 W/m2
15:54 8.4 °C 6.5 °C 1012.4 hPa Calm     88% 0 mm 5 W/m2
15:59 8.4 °C 6.6 °C 1012.4 hPa Calm     88% 0 mm 0 W/m2
16:04 8.4 °C 6.7 °C 1012.4 hPa Calm     88.4% 0.25 mm 0 W/m2
16:09 8.4 °C 6.6 °C 1012.4 hPa Calm     88.4% 0.25 mm 0 W/m2
16:14 8.4 °C 6.7 °C 1012.4 hPa NE 0.2 km/h 1.6 km/h 88.8% 0.25 mm 0 W/m2
16:19 8.3 °C 6.6 °C 1012.4 hPa Calm   1.6 km/h 89% 0.25 mm 0 W/m2
16:24 8.3 °C 6.6 °C 1012.4 hPa Calm   1.6 km/h 89% 0.25 mm 0 W/m2
16:29 8.2 °C 6.5 °C 1012.4 hPa NE 0.8 km/h 4.8 km/h 89% 0.25 mm 0 W/m2
16:34 8.2 °C 6.5 °C 1012.4 hPa NE 0.6 km/h 4.8 km/h 89% 0.25 mm 0 W/m2
16:39 8.2 °C 6.5 °C 1012.8 hPa NE 2.1 km/h 6.4 km/h 89% 0.25 mm 0 W/m2
16:44 8.2 °C 6.6 °C 1012.8 hPa NE 0.6 km/h 4.8 km/h 89.7% 0.25 mm 0 W/m2
16:49 8.1 °C 6.6 °C 1012.8 hPa NE 1.9 km/h 4.8 km/h 90% 0.25 mm 0 W/m2
16:54 8.1 °C 6.6 °C 1012.8 hPa NE 1.1 km/h 4.8 km/h 90% 0.25 mm 0 W/m2
16:59 8.1 °C 6.6 °C 1012.8 hPa NE 0.5 km/h 3.2 km/h 90% 0.25 mm 0 W/m2
17:04 8.1 °C 6.6 °C 1012.8 hPa NE 0.6 km/h 3.2 km/h 90% 0.25 mm 0 W/m2
17:09 8.1 °C 6.6 °C 1012.8 hPa NE 0.8 km/h 4.8 km/h 90% 0 mm 0 W/m2
17:14 8.1 °C 6.6 °C 1012.8 hPa NNE 3.7 km/h 8 km/h 90% 0 mm 0 W/m2
17:19 8 °C 6.6 °C 1012.8 hPa NNE 4 km/h 9.7 km/h 90.7% 0 mm 0 W/m2
17:24 8 °C 6.6 °C 1012.8 hPa North 4.8 km/h 12.9 km/h 91% 0 mm 0 W/m2
17:29 7.9 °C 6.6 °C 1012.8 hPa North 2.1 km/h 12.9 km/h 91% 0 mm 0 W/m2
17:34 7.9 °C 6.6 °C 1012.8 hPa North 2.6 km/h 9.7 km/h 91% 0 mm 0 W/m2
17:39 7.9 °C 6.6 °C 1013.1 hPa North 2.4 km/h 8 km/h 91% 0 mm 0 W/m2
17:44 8 °C 6.6 °C 1012.8 hPa North 0.2 km/h 6.4 km/h 91% 0 mm 0 W/m2
17:49 8 °C 6.6 °C 1013.1 hPa Calm   1.6 km/h 91% 0 mm 0 W/m2
17:54 7.9 °C 6.6 °C 1013.1 hPa North 1.4 km/h 6.4 km/h 91% 0 mm 0 W/m2
17:59 7.9 °C 6.5 °C 1013.1 hPa North 3.5 km/h 9.7 km/h 91% 0 mm 0 W/m2
18:04 7.9 °C 6.5 °C 1013.1 hPa North 3.9 km/h 9.7 km/h 91% 0 mm 0 W/m2
18:09 7.9 °C 6.5 °C 1013.1 hPa North 1.8 km/h 6.4 km/h 91% 0 mm 0 W/m2
18:14 7.8 °C 6.4 °C 1013.1 hPa North 1.8 km/h 9.7 km/h 91% 0 mm 0 W/m2
18:19 7.8 °C 6.4 °C 1013.1 hPa North 1 km/h 8 km/h 91% 0 mm 0 W/m2
18:24 7.8 °C 6.4 °C 1013.1 hPa North 2.3 km/h 6.4 km/h 91.2% 0 mm 0 W/m2
18:29 7.8 °C 6.7 °C 1013.1 hPa North 1.9 km/h 6.4 km/h 92% 0 mm 0 W/m2
18:34 7.8 °C 6.6 °C 1013.1 hPa North 3.2 km/h 9.7 km/h 92% 0 mm 0 W/m2
18:39 7.8 °C 6.7 °C 1013.1 hPa North 1.9 km/h 6.4 km/h 92% 0 mm 0 W/m2
18:44 7.8 °C 6.7 °C 1013.1 hPa North 3.2 km/h 8 km/h 92% 0 mm 0 W/m2
18:49 7.8 °C 6.7 °C 1013.1 hPa North 3.5 km/h 11.3 km/h 92% 0 mm 0 W/m2
18:54 7.8 °C 6.7 °C 1013.1 hPa North 2.7 km/h 11.3 km/h 92% 0 mm 0 W/m2
18:59 7.9 °C 6.7 °C 1013.1 hPa NNW 6.1 km/h 11.3 km/h 92% 0 mm 0 W/m2
19:04 7.9 °C 6.7 °C 1013.1 hPa North 10 km/h 17.7 km/h 92% 0 mm 0 W/m2
19:09 7.9 °C 6.7 °C 1013.1 hPa NNW 3.4 km/h 12.9 km/h 92% 0 mm 0 W/m2
19:14 7.9 °C 6.7 °C 1013.1 hPa NNW 4.8 km/h 11.3 km/h 92% 0 mm 0 W/m2
19:19 7.9 °C 6.7 °C 1013.1 hPa North 5.8 km/h 16.1 km/h 92% 0 mm 0 W/m2
19:24 8 °C 6.8 °C 1013.1 hPa NNE 5.8 km/h 16.1 km/h 92% 0 mm 0 W/m2
19:29 8.1 °C 6.9 °C 1013.1 hPa North 2.1 km/h 16.1 km/h 92% 0 mm 0 W/m2
19:34 8.1 °C 6.9 °C 1013.4 hPa North 0.8 km/h 16.1 km/h 92% 0 mm 0 W/m2
19:39 8.1 °C 6.9 °C 1013.4 hPa North 0.3 km/h 3.2 km/h 92% 0 mm 0 W/m2
19:44 8.1 °C 6.9 °C 1013.4 hPa North 2.4 km/h 8 km/h 92% 0 mm 0 W/m2
19:49 8.1 °C 6.9 °C 1013.4 hPa North 1.6 km/h 6.4 km/h 92% 0 mm 0 W/m2
19:54 8.1 °C 6.9 °C 1013.4 hPa North 2.3 km/h 9.7 km/h 92% 0 mm 0 W/m2
19:59 8.1 °C 6.9 °C 1013.4 hPa NNE 5.1 km/h 16.1 km/h 92% 0 mm 0 W/m2
20:04 8.1 °C 6.9 °C 1013.8 hPa NNE 6 km/h 16.1 km/h 92% 0 mm 0 W/m2
20:09 8.1 °C 6.9 °C 1013.8 hPa NNE 7.2 km/h 17.7 km/h 92% 0 mm 0 W/m2
20:14 8.1 °C 6.9 °C 1013.8 hPa North 7.4 km/h 16.1 km/h 92% 0 mm 0 W/m2
20:19 8.1 °C 6.9 °C 1013.8 hPa North 6.3 km/h 14.5 km/h 92% 0 mm 0 W/m2
20:24 8.1 °C 6.7 °C 1013.8 hPa NNE 4.2 km/h 14.5 km/h 91% 0 mm 0 W/m2
20:29 8 °C 6.6 °C 1013.8 hPa NNW 2.1 km/h 14.5 km/h 91% 0 mm 0 W/m2
20:34 7.9 °C 6.5 °C 1013.8 hPa North 4.2 km/h 12.9 km/h 91% 0 mm 0 W/m2
20:39 7.9 °C 6.5 °C 1013.8 hPa North 3.5 km/h 11.3 km/h 91% 0 mm 0 W/m2
20:44 7.9 °C 6.5 °C 1014.1 hPa North 6.1 km/h 12.9 km/h 91% 0 mm 0 W/m2
20:49 7.9 °C 6.5 °C 1014.1 hPa North 3.4 km/h 12.9 km/h 91% 0 mm 0 W/m2
20:54 7.9 °C 6.5 °C 1014.1 hPa North 3.5 km/h 9.7 km/h 91% 0 mm 0 W/m2
20:59 7.9 °C 6.5 °C 1014.1 hPa North 7.7 km/h 14.5 km/h 91% 0 mm 0 W/m2
21:04 7.9 °C 6.5 °C 1014.1 hPa North 6.6 km/h 12.9 km/h 91% 0 mm 0 W/m2
21:09 8 °C 6.6 °C 1014.1 hPa NNW 6.6 km/h 12.9 km/h 91% 0 mm 0 W/m2
21:14 8 °C 6.6 °C 1014.1 hPa NNW 2.1 km/h 8 km/h 91% 0 mm 0 W/m2
21:19 8 °C 6.6 °C 1014.1 hPa NNW 4 km/h 16.1 km/h 91% 0 mm 0 W/m2
21:24 8 °C 6.6 °C 1014.1 hPa NNE 8.4 km/h 17.7 km/h 91% 0 mm 0 W/m2
21:29 8.1 °C 6.7 °C 1014.4 hPa NNE 6 km/h 12.9 km/h 91% 0 mm 0 W/m2
21:34 8.1 °C 6.8 °C 1014.4 hPa North 6.1 km/h 17.7 km/h 91.4% 0 mm 0 W/m2
21:39 8.1 °C 6.9 °C 1014.4 hPa NE 6.9 km/h 25.7 km/h 92% 0.25 mm 0 W/m2
21:44 8.1 °C 6.9 °C 1014.4 hPa NE 1.4 km/h 8 km/h 92% 0.25 mm 0 W/m2
21:49 8.1 °C 6.8 °C 1014.4 hPa NE 1.4 km/h 9.7 km/h 92% 0.25 mm 0 W/m2
21:54 8 °C 6.8 °C 1014.4 hPa NNE 2.7 km/h 11.3 km/h 92% 0.25 mm 0 W/m2
21:59 7.9 °C 6.7 °C 1014.4 hPa NE 5.8 km/h 24.1 km/h 92% 0.25 mm 0 W/m2
22:04 7.9 °C 6.7 °C 1014.4 hPa NE 5.5 km/h 24.1 km/h 92% 0.25 mm 0 W/m2
22:09 7.8 °C 6.6 °C 1014.4 hPa NE 6.4 km/h 17.7 km/h 92% 0.25 mm 0 W/m2
22:14 7.7 °C 6.6 °C 1014.4 hPa NNE 7.2 km/h 19.3 km/h 92% 0.25 mm 0 W/m2
22:19 7.7 °C 6.5 °C 1014.4 hPa ENE 6.6 km/h 22.5 km/h 92% 0.25 mm 0 W/m2
22:24 7.7 °C 6.4 °C 1014.8 hPa NNE 7.4 km/h 22.5 km/h 91.8% 0.25 mm 0 W/m2
22:29 7.7 °C 6.3 °C 1014.8 hPa NE 4 km/h 12.9 km/h 91% 0.25 mm 0 W/m2
22:34 7.7 °C 6.3 °C 1014.8 hPa North 3.4 km/h 12.9 km/h 91% 0.25 mm 0 W/m2
22:39 7.6 °C 6.2 °C 1014.8 hPa North 3.1 km/h 8 km/h 91% 0.25 mm 0 W/m2
22:44 7.7 °C 6.3 °C 1014.8 hPa NNE 4.5 km/h 11.3 km/h 91% 0 mm 0 W/m2
22:49 7.7 °C 6.3 °C 1014.8 hPa North 5.3 km/h 11.3 km/h 91% 0 mm 0 W/m2
22:54 7.7 °C 6.3 °C 1014.4 hPa North 6 km/h 16.1 km/h 91% 0 mm 0 W/m2
22:59 7.7 °C 6.3 °C 1014.4 hPa NNE 6 km/h 16.1 km/h 91% 0 mm 0 W/m2
23:04 7.7 °C 6.3 °C 1014.4 hPa NE 3.4 km/h 9.7 km/h 91% 0 mm 0 W/m2
23:09 7.7 °C 6.3 °C 1014.4 hPa North 5.1 km/h 12.9 km/h 91% 0 mm 0 W/m2
23:14 7.7 °C 6.3 °C 1014.4 hPa North 2.9 km/h 11.3 km/h 90.6% 0 mm 0 W/m2
23:19 7.7 °C 6.2 °C 1014.8 hPa North 4.7 km/h 12.9 km/h 90% 0 mm 0 W/m2
23:24 7.7 °C 6.2 °C 1014.8 hPa North 5.5 km/h 11.3 km/h 90% 0 mm 0 W/m2
23:29 7.6 °C 6.1 °C 1014.8 hPa North 3.5 km/h 11.3 km/h 90% 0 mm 0 W/m2
23:34 7.6 °C 6.1 °C 1014.8 hPa North 3.7 km/h 11.3 km/h 90% 0 mm 0 W/m2
23:39 7.4 °C 5.9 °C 1014.8 hPa North 5.3 km/h 12.9 km/h 89.6% 0 mm 0 W/m2
23:44 7.4 °C 5.9 °C 1014.8 hPa North 5 km/h 12.9 km/h 89.8% 0 mm 0 W/m2
23:49 7.4 °C 5.7 °C 1014.8 hPa North 6.3 km/h 16.1 km/h 89% 0 mm 0 W/m2
23:54 7.4 °C 5.7 °C 1015.1 hPa North 6.8 km/h 16.1 km/h 89% 0 mm 0 W/m2
23:59 7.4 °C 5.7 °C 1015.1 hPa NNW 3.7 km/h 11.3 km/h 89% 0 mm 0 W/m2
Bath Spa Weather
Compliments of Weather Underground - 2 mb